sensor_id;sensor_type;location;lat;lon;timestamp;P1;durP1;ratioP1;P2;durP2;ratioP2
41546;SDS011;27271;45.412;10.852;2023-02-01T00:02:22;62.13;;;23.60;;
41546;SDS011;27271;45.412;10.852;2023-02-01T00:05:44;67.82;;;25.85;;
41546;SDS011;27271;45.412;10.852;2023-02-01T00:09:15;68.18;;;23.63;;
41546;SDS011;27271;45.412;10.852;2023-02-01T00:12:37;71.45;;;24.25;;
41546;SDS011;27271;45.412;10.852;2023-02-01T00:19:49;58.72;;;24.75;;
41546;SDS011;27271;45.412;10.852;2023-02-01T00:23:11;61.45;;;23.30;;
41546;SDS011;27271;45.412;10.852;2023-02-01T00:26:38;64.00;;;22.25;;
41546;SDS011;27271;45.412;10.852;2023-02-01T00:30:02;67.03;;;24.30;;
41546;SDS011;27271;45.412;10.852;2023-02-01T00:33:24;56.30;;;23.25;;
41546;SDS011;27271;45.412;10.852;2023-02-01T00:36:47;61.17;;;22.13;;
41546;SDS011;27271;45.412;10.852;2023-02-01T00:40:09;56.05;;;21.23;;
41546;SDS011;27271;45.412;10.852;2023-02-01T00:43:32;60.28;;;23.08;;
41546;SDS011;27271;45.412;10.852;2023-02-01T00:46:54;66.38;;;23.48;;
41546;SDS011;27271;45.412;10.852;2023-02-01T00:50:16;63.20;;;22.95;;
41546;SDS011;27271;45.412;10.852;2023-02-01T00:53:38;74.32;;;24.90;;
41546;SDS011;27271;45.412;10.852;2023-02-01T00:57:01;74.18;;;23.40;;
41546;SDS011;27271;45.412;10.852;2023-02-01T01:00:23;66.07;;;22.42;;
41546;SDS011;27271;45.412;10.852;2023-02-01T01:03:49;64.88;;;22.55;;
41546;SDS011;27271;45.412;10.852;2023-02-01T01:07:15;71.38;;;23.58;;
41546;SDS011;27271;45.412;10.852;2023-02-01T01:10:37;63.90;;;24.50;;
41546;SDS011;27271;45.412;10.852;2023-02-01T01:13:59;66.82;;;24.83;;
41546;SDS011;27271;45.412;10.852;2023-02-01T01:17:22;58.65;;;21.70;;
41546;SDS011;27271;45.412;10.852;2023-02-01T01:20:44;61.80;;;23.23;;
41546;SDS011;27271;45.412;10.852;2023-02-01T01:24:06;68.18;;;23.67;;
41546;SDS011;27271;45.412;10.852;2023-02-01T01:27:28;54.00;;;21.05;;
41546;SDS011;27271;45.412;10.852;2023-02-01T01:30:50;65.53;;;24.52;;
41546;SDS011;27271;45.412;10.852;2023-02-01T01:34:12;68.80;;;24.73;;
41546;SDS011;27271;45.412;10.852;2023-02-01T01:37:35;65.88;;;24.15;;
41546;SDS011;27271;45.412;10.852;2023-02-01T01:40:57;51.35;;;21.58;;
41546;SDS011;27271;45.412;10.852;2023-02-01T01:48:26;63.97;;;23.02;;
41546;SDS011;27271;45.412;10.852;2023-02-01T01:51:52;52.85;;;22.45;;
41546;SDS011;27271;45.412;10.852;2023-02-01T01:55:19;66.15;;;22.75;;
41546;SDS011;27271;45.412;10.852;2023-02-01T01:58:43;63.42;;;23.92;;
41546;SDS011;27271;45.412;10.852;2023-02-01T02:02:05;76.85;;;25.55;;
41546;SDS011;27271;45.412;10.852;2023-02-01T02:05:28;61.75;;;23.60;;
41546;SDS011;27271;45.412;10.852;2023-02-01T02:08:51;65.45;;;23.85;;
41546;SDS011;27271;45.412;10.852;2023-02-01T02:12:13;65.75;;;25.00;;
41546;SDS011;27271;45.412;10.852;2023-02-01T02:15:36;53.97;;;22.55;;
41546;SDS011;27271;45.412;10.852;2023-02-01T02:41:32;65.03;;;22.23;;
41546;SDS011;27271;45.412;10.852;2023-02-01T02:45:22;66.93;;;23.27;;
41546;SDS011;27271;45.412;10.852;2023-02-01T02:49:29;62.97;;;21.58;;
41546;SDS011;27271;45.412;10.852;2023-02-01T02:53:02;50.17;;;21.45;;
41546;SDS011;27271;45.412;10.852;2023-02-01T02:56:53;58.13;;;21.23;;
41546;SDS011;27271;45.412;10.852;2023-02-01T03:00:37;64.90;;;20.92;;
41546;SDS011;27271;45.412;10.852;2023-02-01T03:04:18;62.72;;;22.20;;
41546;SDS011;27271;45.412;10.852;2023-02-01T03:11:12;58.60;;;22.92;;
41546;SDS011;27271;45.412;10.852;2023-02-01T03:14:36;69.07;;;23.08;;
41546;SDS011;27271;45.412;10.852;2023-02-01T03:18:05;64.22;;;24.17;;
41546;SDS011;27271;45.412;10.852;2023-02-01T03:25:07;64.10;;;24.65;;
41546;SDS011;27271;45.412;10.852;2023-02-01T03:31:57;58.80;;;22.02;;
41546;SDS011;27271;45.412;10.852;2023-02-01T03:35:20;73.53;;;24.40;;
41546;SDS011;27271;45.412;10.852;2023-02-01T03:38:55;71.50;;;24.98;;
41546;SDS011;27271;45.412;10.852;2023-02-01T03:42:27;52.05;;;21.15;;
41546;SDS011;27271;45.412;10.852;2023-02-01T03:46:02;66.63;;;23.63;;
41546;SDS011;27271;45.412;10.852;2023-02-01T03:49:50;68.07;;;24.40;;
41546;SDS011;27271;45.412;10.852;2023-02-01T03:53:14;69.22;;;23.63;;
41546;SDS011;27271;45.412;10.852;2023-02-01T03:56:40;68.32;;;25.13;;
41546;SDS011;27271;45.412;10.852;2023-02-01T04:00:24;66.40;;;22.50;;
41546;SDS011;27271;45.412;10.852;2023-02-01T04:03:49;66.13;;;23.92;;
41546;SDS011;27271;45.412;10.852;2023-02-01T04:07:12;74.43;;;27.48;;
41546;SDS011;27271;45.412;10.852;2023-02-01T04:10:34;65.20;;;23.55;;
41546;SDS011;27271;45.412;10.852;2023-02-01T04:13:56;69.25;;;24.00;;
41546;SDS011;27271;45.412;10.852;2023-02-01T04:17:19;63.53;;;25.02;;
41546;SDS011;27271;45.412;10.852;2023-02-01T04:20:42;57.53;;;23.02;;
41546;SDS011;27271;45.412;10.852;2023-02-01T04:24:04;65.63;;;24.65;;
41546;SDS011;27271;45.412;10.852;2023-02-01T04:27:27;64.80;;;24.58;;
41546;SDS011;27271;45.412;10.852;2023-02-01T04:30:49;68.22;;;22.05;;
41546;SDS011;27271;45.412;10.852;2023-02-01T04:34:11;72.40;;;24.85;;
41546;SDS011;27271;45.412;10.852;2023-02-01T04:37:33;87.32;;;26.13;;
41546;SDS011;27271;45.412;10.852;2023-02-01T04:40:56;78.82;;;26.48;;
41546;SDS011;27271;45.412;10.852;2023-02-01T04:44:18;69.97;;;23.70;;
41546;SDS011;27271;45.412;10.852;2023-02-01T04:47:40;69.57;;;23.70;;
41546;SDS011;27271;45.412;10.852;2023-02-01T04:51:02;58.03;;;21.95;;
41546;SDS011;27271;45.412;10.852;2023-02-01T04:54:24;74.68;;;24.33;;
41546;SDS011;27271;45.412;10.852;2023-02-01T04:57:46;61.78;;;21.35;;
41546;SDS011;27271;45.412;10.852;2023-02-01T05:01:08;57.80;;;22.52;;
41546;SDS011;27271;45.412;10.852;2023-02-01T05:04:30;61.15;;;23.65;;
41546;SDS011;27271;45.412;10.852;2023-02-01T05:07:52;55.58;;;24.05;;
41546;SDS011;27271;45.412;10.852;2023-02-01T05:11:14;63.17;;;23.02;;
41546;SDS011;27271;45.412;10.852;2023-02-01T05:14:55;69.05;;;23.40;;
41546;SDS011;27271;45.412;10.852;2023-02-01T05:18:17;66.45;;;25.60;;
41546;SDS011;27271;45.412;10.852;2023-02-01T05:21:39;83.90;;;28.05;;
41546;SDS011;27271;45.412;10.852;2023-02-01T05:25:01;75.93;;;25.00;;
41546;SDS011;27271;45.412;10.852;2023-02-01T05:28:23;70.65;;;23.92;;
41546;SDS011;27271;45.412;10.852;2023-02-01T05:31:45;61.58;;;22.58;;
41546;SDS011;27271;45.412;10.852;2023-02-01T05:35:08;66.88;;;23.55;;
41546;SDS011;27271;45.412;10.852;2023-02-01T05:38:30;76.10;;;26.42;;
41546;SDS011;27271;45.412;10.852;2023-02-01T05:41:52;72.97;;;24.40;;
41546;SDS011;27271;45.412;10.852;2023-02-01T05:45:14;67.15;;;23.85;;
41546;SDS011;27271;45.412;10.852;2023-02-01T05:49:38;67.60;;;24.60;;
41546;SDS011;27271;45.412;10.852;2023-02-01T05:53:00;60.75;;;24.92;;
41546;SDS011;27271;45.412;10.852;2023-02-01T05:56:22;77.47;;;25.88;;
41546;SDS011;27271;45.412;10.852;2023-02-01T05:59:44;70.47;;;25.90;;
41546;SDS011;27271;45.412;10.852;2023-02-01T06:03:07;75.35;;;26.55;;
41546;SDS011;27271;45.412;10.852;2023-02-01T06:06:29;64.55;;;24.40;;
41546;SDS011;27271;45.412;10.852;2023-02-01T06:09:51;63.45;;;24.10;;
41546;SDS011;27271;45.412;10.852;2023-02-01T06:13:13;71.55;;;25.67;;
41546;SDS011;27271;45.412;10.852;2023-02-01T06:16:35;78.68;;;25.25;;
41546;SDS011;27271;45.412;10.852;2023-02-01T06:19:57;60.53;;;26.55;;
41546;SDS011;27271;45.412;10.852;2023-02-01T06:23:19;70.45;;;25.88;;
41546;SDS011;27271;45.412;10.852;2023-02-01T06:26:45;71.15;;;26.42;;
41546;SDS011;27271;45.412;10.852;2023-02-01T06:30:08;76.07;;;24.92;;
41546;SDS011;27271;45.412;10.852;2023-02-01T06:33:31;72.07;;;26.58;;
41546;SDS011;27271;45.412;10.852;2023-02-01T06:36:54;90.10;;;27.42;;
41546;SDS011;27271;45.412;10.852;2023-02-01T06:40:16;78.95;;;25.92;;
41546;SDS011;27271;45.412;10.852;2023-02-01T06:43:38;63.35;;;25.20;;
41546;SDS011;27271;45.412;10.852;2023-02-01T06:47:01;88.90;;;29.90;;
41546;SDS011;27271;45.412;10.852;2023-02-01T06:50:26;68.22;;;27.10;;
41546;SDS011;27271;45.412;10.852;2023-02-01T06:53:49;78.75;;;28.40;;
41546;SDS011;27271;45.412;10.852;2023-02-01T06:57:11;71.57;;;26.27;;
41546;SDS011;27271;45.412;10.852;2023-02-01T07:00:33;73.65;;;28.27;;
41546;SDS011;27271;45.412;10.852;2023-02-01T07:03:56;78.65;;;29.08;;
41546;SDS011;27271;45.412;10.852;2023-02-01T07:07:18;89.30;;;32.28;;
41546;SDS011;27271;45.412;10.852;2023-02-01T07:10:41;91.25;;;31.50;;
41546;SDS011;27271;45.412;10.852;2023-02-01T07:14:03;81.10;;;29.70;;
41546;SDS011;27271;45.412;10.852;2023-02-01T07:17:25;86.43;;;31.17;;
41546;SDS011;27271;45.412;10.852;2023-02-01T07:20:50;94.25;;;34.47;;
41546;SDS011;27271;45.412;10.852;2023-02-01T07:24:12;92.60;;;32.95;;
41546;SDS011;27271;45.412;10.852;2023-02-01T07:27:36;101.82;;;34.17;;
41546;SDS011;27271;45.412;10.852;2023-02-01T07:31:02;96.45;;;32.20;;
41546;SDS011;27271;45.412;10.852;2023-02-01T07:34:28;94.85;;;35.53;;
41546;SDS011;27271;45.412;10.852;2023-02-01T07:37:52;102.78;;;31.73;;
41546;SDS011;27271;45.412;10.852;2023-02-01T07:41:14;95.93;;;32.72;;
41546;SDS011;27271;45.412;10.852;2023-02-01T07:44:36;119.00;;;34.78;;
41546;SDS011;27271;45.412;10.852;2023-02-01T07:47:58;94.15;;;34.22;;
41546;SDS011;27271;45.412;10.852;2023-02-01T07:51:20;105.03;;;35.90;;
41546;SDS011;27271;45.412;10.852;2023-02-01T07:54:42;135.80;;;43.80;;
41546;SDS011;27271;45.412;10.852;2023-02-01T07:58:04;149.25;;;47.58;;
41546;SDS011;27271;45.412;10.852;2023-02-01T08:01:27;181.25;;;53.50;;
41546;SDS011;27271;45.412;10.852;2023-02-01T08:04:50;181.27;;;55.58;;
41546;SDS011;27271;45.412;10.852;2023-02-01T08:08:12;202.93;;;59.28;;
41546;SDS011;27271;45.412;10.852;2023-02-01T08:11:34;230.77;;;70.13;;
41546;SDS011;27271;45.412;10.852;2023-02-01T08:14:59;303.77;;;83.72;;
41546;SDS011;27271;45.412;10.852;2023-02-01T08:18:21;313.98;;;88.07;;
41546;SDS011;27271;45.412;10.852;2023-02-01T08:21:43;326.13;;;88.72;;
41546;SDS011;27271;45.412;10.852;2023-02-01T08:25:05;324.25;;;96.35;;
41546;SDS011;27271;45.412;10.852;2023-02-01T08:28:27;334.08;;;98.55;;
41546;SDS011;27271;45.412;10.852;2023-02-01T08:31:49;331.85;;;99.53;;
41546;SDS011;27271;45.412;10.852;2023-02-01T08:35:13;317.42;;;101.38;;
41546;SDS011;27271;45.412;10.852;2023-02-01T08:38:35;292.33;;;98.72;;
41546;SDS011;27271;45.412;10.852;2023-02-01T08:41:58;224.63;;;82.07;;
41546;SDS011;27271;45.412;10.852;2023-02-01T08:49:01;215.63;;;74.32;;
41546;SDS011;27271;45.412;10.852;2023-02-01T08:52:23;171.07;;;65.80;;
41546;SDS011;27271;45.412;10.852;2023-02-01T08:55:46;122.45;;;51.22;;
41546;SDS011;27271;45.412;10.852;2023-02-01T08:59:08;118.07;;;44.92;;
41546;SDS011;27271;45.412;10.852;2023-02-01T09:02:30;97.32;;;42.17;;
41546;SDS011;27271;45.412;10.852;2023-02-01T09:05:52;94.13;;;40.45;;
41546;SDS011;27271;45.412;10.852;2023-02-01T09:09:27;83.95;;;35.72;;
41546;SDS011;27271;45.412;10.852;2023-02-01T09:12:49;81.30;;;35.33;;
41546;SDS011;27271;45.412;10.852;2023-02-01T09:16:11;72.55;;;32.67;;
41546;SDS011;27271;45.412;10.852;2023-02-01T09:19:34;81.10;;;33.53;;
41546;SDS011;27271;45.412;10.852;2023-02-01T09:22:56;92.82;;;35.85;;
41546;SDS011;27271;45.412;10.852;2023-02-01T09:26:18;81.88;;;34.80;;
41546;SDS011;27271;45.412;10.852;2023-02-01T09:29:51;81.10;;;34.92;;
41546;SDS011;27271;45.412;10.852;2023-02-01T09:33:16;85.97;;;36.40;;
41546;SDS011;27271;45.412;10.852;2023-02-01T09:36:38;86.07;;;35.67;;
41546;SDS011;27271;45.412;10.852;2023-02-01T09:40:00;87.35;;;36.53;;
41546;SDS011;27271;45.412;10.852;2023-02-01T09:47:01;82.63;;;36.53;;
41546;SDS011;27271;45.412;10.852;2023-02-01T09:50:28;83.57;;;36.65;;
41546;SDS011;27271;45.412;10.852;2023-02-01T09:54:03;84.60;;;37.25;;
41546;SDS011;27271;45.412;10.852;2023-02-01T09:57:48;94.68;;;38.72;;
41546;SDS011;27271;45.412;10.852;2023-02-01T10:01:19;90.50;;;36.58;;
41546;SDS011;27271;45.412;10.852;2023-02-01T10:04:43;98.95;;;38.47;;
41546;SDS011;27271;45.412;10.852;2023-02-01T10:19:25;86.97;;;36.25;;
41546;SDS011;27271;45.412;10.852;2023-02-01T10:27:30;87.07;;;38.30;;
41546;SDS011;27271;45.412;10.852;2023-02-01T10:30:39;94.05;;;39.33;;
41546;SDS011;27271;45.412;10.852;2023-02-01T10:34:12;91.47;;;38.70;;
41546;SDS011;27271;45.412;10.852;2023-02-01T10:37:40;86.88;;;37.17;;
41546;SDS011;27271;45.412;10.852;2023-02-01T10:41:07;83.55;;;36.50;;
41546;SDS011;27271;45.412;10.852;2023-02-01T10:44:35;89.63;;;36.20;;
41546;SDS011;27271;45.412;10.852;2023-02-01T10:48:04;87.37;;;38.07;;
41546;SDS011;27271;45.412;10.852;2023-02-01T10:51:30;94.60;;;40.63;;
41546;SDS011;27271;45.412;10.852;2023-02-01T10:58:47;97.43;;;38.63;;
41546;SDS011;27271;45.412;10.852;2023-02-01T11:02:15;88.90;;;35.58;;
41546;SDS011;27271;45.412;10.852;2023-02-01T11:05:49;86.43;;;37.55;;
41546;SDS011;27271;45.412;10.852;2023-02-01T11:12:44;93.13;;;37.97;;
41546;SDS011;27271;45.412;10.852;2023-02-01T11:16:15;90.18;;;37.10;;
41546;SDS011;27271;45.412;10.852;2023-02-01T11:19:38;95.03;;;38.67;;
41546;SDS011;27271;45.412;10.852;2023-02-01T11:23:01;91.82;;;35.72;;
41546;SDS011;27271;45.412;10.852;2023-02-01T11:26:24;91.88;;;39.15;;
41546;SDS011;27271;45.412;10.852;2023-02-01T11:29:49;98.88;;;40.97;;
41546;SDS011;27271;45.412;10.852;2023-02-01T11:33:16;99.30;;;40.28;;
41546;SDS011;27271;45.412;10.852;2023-02-01T11:36:41;96.03;;;38.75;;
41546;SDS011;27271;45.412;10.852;2023-02-01T11:40:22;96.20;;;38.20;;
41546;SDS011;27271;45.412;10.852;2023-02-01T11:43:55;97.65;;;41.97;;
41546;SDS011;27271;45.412;10.852;2023-02-01T11:55:18;101.70;;;40.67;;
41546;SDS011;27271;45.412;10.852;2023-02-01T12:01:57;95.93;;;40.17;;
41546;SDS011;27271;45.412;10.852;2023-02-01T12:05:35;94.53;;;41.45;;
41546;SDS011;27271;45.412;10.852;2023-02-01T12:09:14;92.78;;;38.30;;
41546;SDS011;27271;45.412;10.852;2023-02-01T12:20:35;85.40;;;36.83;;
41546;SDS011;27271;45.412;10.852;2023-02-01T12:42:47;108.35;;;41.97;;
41546;SDS011;27271;45.412;10.852;2023-02-01T12:46:27;91.40;;;38.08;;
41546;SDS011;27271;45.412;10.852;2023-02-01T12:53:44;85.38;;;37.33;;
41546;SDS011;27271;45.412;10.852;2023-02-01T12:57:27;96.47;;;37.92;;
41546;SDS011;27271;45.412;10.852;2023-02-01T13:01:02;90.40;;;35.40;;
41546;SDS011;27271;45.412;10.852;2023-02-01T13:04:32;84.82;;;35.30;;
41546;SDS011;27271;45.412;10.852;2023-02-01T13:08:05;84.50;;;35.30;;
41546;SDS011;27271;45.412;10.852;2023-02-01T13:11:33;91.93;;;37.40;;
41546;SDS011;27271;45.412;10.852;2023-02-01T13:15:00;95.78;;;37.47;;
41546;SDS011;27271;45.412;10.852;2023-02-01T13:18:38;87.35;;;35.45;;
41546;SDS011;27271;45.412;10.852;2023-02-01T13:22:11;89.97;;;37.55;;
41546;SDS011;27271;45.412;10.852;2023-02-01T13:29:10;89.93;;;36.80;;
41546;SDS011;27271;45.412;10.852;2023-02-01T13:43:45;97.82;;;39.50;;
41546;SDS011;27271;45.412;10.852;2023-02-01T13:47:28;87.87;;;35.93;;
41546;SDS011;27271;45.412;10.852;2023-02-01T13:50:54;82.30;;;35.47;;
41546;SDS011;27271;45.412;10.852;2023-02-01T13:54:34;97.60;;;39.78;;
41546;SDS011;27271;45.412;10.852;2023-02-01T13:58:00;83.30;;;35.53;;
41546;SDS011;27271;45.412;10.852;2023-02-01T14:01:43;91.85;;;35.58;;
41546;SDS011;27271;45.412;10.852;2023-02-01T14:08:46;88.97;;;36.78;;
41546;SDS011;27271;45.412;10.852;2023-02-01T14:16:11;92.45;;;37.97;;
41546;SDS011;27271;45.412;10.852;2023-02-01T14:19:37;101.10;;;37.38;;
41546;SDS011;27271;45.412;10.852;2023-02-01T14:23:02;87.07;;;38.90;;
41546;SDS011;27271;45.412;10.852;2023-02-01T14:30:00;77.07;;;35.90;;
41546;SDS011;27271;45.412;10.852;2023-02-01T14:33:27;93.88;;;39.15;;
41546;SDS011;27271;45.412;10.852;2023-02-01T14:36:51;93.65;;;38.25;;
41546;SDS011;27271;45.412;10.852;2023-02-01T14:40:20;91.93;;;38.35;;
41546;SDS011;27271;45.412;10.852;2023-02-01T14:43:50;91.85;;;39.55;;
41546;SDS011;27271;45.412;10.852;2023-02-01T14:47:32;95.25;;;39.53;;
41546;SDS011;27271;45.412;10.852;2023-02-01T14:50:55;91.65;;;38.88;;
41546;SDS011;27271;45.412;10.852;2023-02-01T14:54:19;102.18;;;43.55;;
41546;SDS011;27271;45.412;10.852;2023-02-01T14:57:41;98.20;;;40.78;;
41546;SDS011;27271;45.412;10.852;2023-02-01T15:01:20;82.18;;;37.67;;
41546;SDS011;27271;45.412;10.852;2023-02-01T15:04:45;90.05;;;39.50;;
41546;SDS011;27271;45.412;10.852;2023-02-01T15:08:16;97.82;;;41.22;;
41546;SDS011;27271;45.412;10.852;2023-02-01T15:11:55;96.18;;;39.47;;
41546;SDS011;27271;45.412;10.852;2023-02-01T15:15:32;87.97;;;38.47;;
41546;SDS011;27271;45.412;10.852;2023-02-01T15:19:07;91.22;;;38.70;;
41546;SDS011;27271;45.412;10.852;2023-02-01T15:22:32;93.80;;;38.22;;
41546;SDS011;27271;45.412;10.852;2023-02-01T15:25:54;89.78;;;38.13;;
41546;SDS011;27271;45.412;10.852;2023-02-01T15:29:16;95.20;;;38.42;;
41546;SDS011;27271;45.412;10.852;2023-02-01T15:32:40;85.63;;;38.33;;
41546;SDS011;27271;45.412;10.852;2023-02-01T15:39:27;85.63;;;36.10;;
41546;SDS011;27271;45.412;10.852;2023-02-01T15:42:54;85.65;;;37.42;;
41546;SDS011;27271;45.412;10.852;2023-02-01T15:46:23;82.00;;;34.67;;
41546;SDS011;27271;45.412;10.852;2023-02-01T15:49:56;92.38;;;35.30;;
41546;SDS011;27271;45.412;10.852;2023-02-01T15:53:20;91.78;;;35.92;;
41546;SDS011;27271;45.412;10.852;2023-02-01T15:56:44;93.47;;;37.78;;
41546;SDS011;27271;45.412;10.852;2023-02-01T16:00:25;98.28;;;36.88;;
41546;SDS011;27271;45.412;10.852;2023-02-01T16:04:20;90.00;;;37.88;;
41546;SDS011;27271;45.412;10.852;2023-02-01T16:07:53;90.97;;;36.13;;
41546;SDS011;27271;45.412;10.852;2023-02-01T16:11:41;99.00;;;36.35;;
41546;SDS011;27271;45.412;10.852;2023-02-01T16:15:15;92.95;;;36.53;;
41546;SDS011;27271;45.412;10.852;2023-02-01T16:18:37;83.90;;;36.08;;
41546;SDS011;27271;45.412;10.852;2023-02-01T16:21:59;108.18;;;39.05;;
41546;SDS011;27271;45.412;10.852;2023-02-01T16:25:21;80.47;;;34.28;;
41546;SDS011;27271;45.412;10.852;2023-02-01T16:28:44;91.97;;;35.30;;
41546;SDS011;27271;45.412;10.852;2023-02-01T16:32:09;81.90;;;34.33;;
41546;SDS011;27271;45.412;10.852;2023-02-01T16:35:37;78.50;;;32.20;;
41546;SDS011;27271;45.412;10.852;2023-02-01T16:38:59;77.80;;;32.65;;
41546;SDS011;27271;45.412;10.852;2023-02-01T16:42:21;75.20;;;32.72;;
41546;SDS011;27271;45.412;10.852;2023-02-01T16:45:44;88.43;;;34.25;;
41546;SDS011;27271;45.412;10.852;2023-02-01T16:52:42;83.53;;;35.28;;
41546;SDS011;27271;45.412;10.852;2023-02-01T16:56:12;80.93;;;35.38;;
41546;SDS011;27271;45.412;10.852;2023-02-01T16:59:38;84.85;;;35.20;;
41546;SDS011;27271;45.412;10.852;2023-02-01T17:03:01;81.95;;;33.85;;
41546;SDS011;27271;45.412;10.852;2023-02-01T17:06:24;78.75;;;32.08;;
41546;SDS011;27271;45.412;10.852;2023-02-01T17:09:48;69.57;;;31.67;;
41546;SDS011;27271;45.412;10.852;2023-02-01T17:13:14;72.65;;;33.50;;
41546;SDS011;27271;45.412;10.852;2023-02-01T17:16:37;80.05;;;35.47;;
41546;SDS011;27271;45.412;10.852;2023-02-01T17:19:59;77.97;;;33.40;;
41546;SDS011;27271;45.412;10.852;2023-02-01T17:23:21;88.95;;;33.53;;
41546;SDS011;27271;45.412;10.852;2023-02-01T17:26:43;73.35;;;30.92;;
41546;SDS011;27271;45.412;10.852;2023-02-01T17:30:06;98.75;;;36.95;;
41546;SDS011;27271;45.412;10.852;2023-02-01T17:33:31;79.32;;;31.60;;
41546;SDS011;27271;45.412;10.852;2023-02-01T17:36:57;77.10;;;33.30;;
41546;SDS011;27271;45.412;10.852;2023-02-01T17:40:19;85.50;;;33.90;;
41546;SDS011;27271;45.412;10.852;2023-02-01T17:43:41;77.43;;;31.08;;
41546;SDS011;27271;45.412;10.852;2023-02-01T17:47:03;78.78;;;32.47;;
41546;SDS011;27271;45.412;10.852;2023-02-01T17:50:25;91.03;;;35.65;;
41546;SDS011;27271;45.412;10.852;2023-02-01T17:53:50;85.72;;;35.30;;
41546;SDS011;27271;45.412;10.852;2023-02-01T17:57:12;83.55;;;33.60;;
41546;SDS011;27271;45.412;10.852;2023-02-01T18:00:34;82.47;;;34.63;;
41546;SDS011;27271;45.412;10.852;2023-02-01T18:03:59;80.15;;;32.80;;
41546;SDS011;27271;45.412;10.852;2023-02-01T18:07:21;92.82;;;34.35;;
41546;SDS011;27271;45.412;10.852;2023-02-01T18:10:43;85.10;;;34.90;;
41546;SDS011;27271;45.412;10.852;2023-02-01T18:14:05;87.47;;;34.75;;
41546;SDS011;27271;45.412;10.852;2023-02-01T18:17:27;93.30;;;36.53;;
41546;SDS011;27271;45.412;10.852;2023-02-01T18:20:49;98.43;;;36.13;;
41546;SDS011;27271;45.412;10.852;2023-02-01T18:24:12;98.28;;;39.08;;
41546;SDS011;27271;45.412;10.852;2023-02-01T18:27:35;94.50;;;36.92;;
41546;SDS011;27271;45.412;10.852;2023-02-01T18:30:57;102.00;;;40.20;;
41546;SDS011;27271;45.412;10.852;2023-02-01T18:34:20;97.25;;;37.70;;
41546;SDS011;27271;45.412;10.852;2023-02-01T18:37:44;90.18;;;35.42;;
41546;SDS011;27271;45.412;10.852;2023-02-01T18:41:08;81.82;;;32.75;;
41546;SDS011;27271;45.412;10.852;2023-02-01T18:44:35;86.15;;;33.22;;
41546;SDS011;27271;45.412;10.852;2023-02-01T18:47:58;97.60;;;37.15;;
41546;SDS011;27271;45.412;10.852;2023-02-01T18:51:20;90.00;;;35.78;;
41546;SDS011;27271;45.412;10.852;2023-02-01T18:54:43;90.82;;;37.88;;
41546;SDS011;27271;45.412;10.852;2023-02-01T18:58:20;101.10;;;38.13;;
41546;SDS011;27271;45.412;10.852;2023-02-01T19:01:43;112.03;;;40.92;;
41546;SDS011;27271;45.412;10.852;2023-02-01T19:05:06;110.93;;;43.47;;
41546;SDS011;27271;45.412;10.852;2023-02-01T19:08:28;114.03;;;41.47;;
41546;SDS011;27271;45.412;10.852;2023-02-01T19:11:50;104.75;;;40.55;;
41546;SDS011;27271;45.412;10.852;2023-02-01T19:15:12;101.95;;;39.85;;
41546;SDS011;27271;45.412;10.852;2023-02-01T19:18:36;105.25;;;42.35;;
41546;SDS011;27271;45.412;10.852;2023-02-01T19:21:58;109.10;;;40.50;;
41546;SDS011;27271;45.412;10.852;2023-02-01T19:25:21;103.38;;;40.28;;
41546;SDS011;27271;45.412;10.852;2023-02-01T19:28:45;93.55;;;37.55;;
41546;SDS011;27271;45.412;10.852;2023-02-01T19:32:09;112.75;;;42.47;;
41546;SDS011;27271;45.412;10.852;2023-02-01T19:35:31;112.90;;;45.38;;
41546;SDS011;27271;45.412;10.852;2023-02-01T19:38:53;125.60;;;48.05;;
41546;SDS011;27271;45.412;10.852;2023-02-01T19:42:15;128.95;;;47.08;;
41546;SDS011;27271;45.412;10.852;2023-02-01T19:45:37;118.07;;;42.25;;
41546;SDS011;27271;45.412;10.852;2023-02-01T19:48:59;101.75;;;39.38;;
41546;SDS011;27271;45.412;10.852;2023-02-01T19:52:21;104.35;;;38.38;;
41546;SDS011;27271;45.412;10.852;2023-02-01T19:55:44;106.40;;;39.72;;
41546;SDS011;27271;45.412;10.852;2023-02-01T19:59:07;102.53;;;37.58;;
41546;SDS011;27271;45.412;10.852;2023-02-01T20:02:29;120.97;;;40.80;;
41546;SDS011;27271;45.412;10.852;2023-02-01T20:05:52;91.88;;;36.20;;
41546;SDS011;27271;45.412;10.852;2023-02-01T20:09:15;105.68;;;38.50;;
41546;SDS011;27271;45.412;10.852;2023-02-01T20:12:39;112.63;;;42.42;;
41546;SDS011;27271;45.412;10.852;2023-02-01T20:16:01;100.85;;;39.97;;
41546;SDS011;27271;45.412;10.852;2023-02-01T20:19:23;107.18;;;39.40;;
41546;SDS011;27271;45.412;10.852;2023-02-01T20:22:45;115.90;;;39.92;;
41546;SDS011;27271;45.412;10.852;2023-02-01T20:26:09;106.00;;;37.92;;
41546;SDS011;27271;45.412;10.852;2023-02-01T20:29:32;109.43;;;39.90;;
41546;SDS011;27271;45.412;10.852;2023-02-01T20:32:54;103.63;;;41.90;;
41546;SDS011;27271;45.412;10.852;2023-02-01T20:36:16;115.40;;;40.10;;
41546;SDS011;27271;45.412;10.852;2023-02-01T20:39:38;123.78;;;44.38;;
41546;SDS011;27271;45.412;10.852;2023-02-01T20:43:00;101.97;;;39.92;;
41546;SDS011;27271;45.412;10.852;2023-02-01T20:46:22;118.78;;;42.55;;
41546;SDS011;27271;45.412;10.852;2023-02-01T20:49:45;104.30;;;42.65;;
41546;SDS011;27271;45.412;10.852;2023-02-01T20:53:07;105.60;;;41.65;;
41546;SDS011;27271;45.412;10.852;2023-02-01T20:56:37;113.28;;;43.17;;
41546;SDS011;27271;45.412;10.852;2023-02-01T20:59:59;109.95;;;40.70;;
41546;SDS011;27271;45.412;10.852;2023-02-01T21:03:22;106.68;;;39.17;;
41546;SDS011;27271;45.412;10.852;2023-02-01T21:06:44;98.18;;;40.05;;
41546;SDS011;27271;45.412;10.852;2023-02-01T21:10:06;99.72;;;37.13;;
41546;SDS011;27271;45.412;10.852;2023-02-01T21:13:30;91.25;;;37.83;;
41546;SDS011;27271;45.412;10.852;2023-02-01T21:16:56;105.63;;;38.38;;
41546;SDS011;27271;45.412;10.852;2023-02-01T21:20:18;105.78;;;39.08;;
41546;SDS011;27271;45.412;10.852;2023-02-01T21:23:40;115.20;;;37.60;;
41546;SDS011;27271;45.412;10.852;2023-02-01T21:27:06;95.95;;;35.35;;
41546;SDS011;27271;45.412;10.852;2023-02-01T21:30:31;94.32;;;34.40;;
41546;SDS011;27271;45.412;10.852;2023-02-01T21:33:54;99.82;;;36.67;;
41546;SDS011;27271;45.412;10.852;2023-02-01T21:37:16;78.97;;;33.03;;
41546;SDS011;27271;45.412;10.852;2023-02-01T21:40:38;114.28;;;38.22;;
41546;SDS011;27271;45.412;10.852;2023-02-01T21:44:00;100.22;;;37.08;;
41546;SDS011;27271;45.412;10.852;2023-02-01T21:47:22;101.10;;;34.83;;
41546;SDS011;27271;45.412;10.852;2023-02-01T21:50:47;105.35;;;34.75;;
41546;SDS011;27271;45.412;10.852;2023-02-01T21:54:09;103.32;;;38.03;;
41546;SDS011;27271;45.412;10.852;2023-02-01T21:57:32;91.95;;;34.65;;
41546;SDS011;27271;45.412;10.852;2023-02-01T22:00:54;97.70;;;36.30;;
41546;SDS011;27271;45.412;10.852;2023-02-01T22:04:16;108.80;;;36.75;;
41546;SDS011;27271;45.412;10.852;2023-02-01T22:07:38;91.90;;;36.63;;